sensor_id;sensor_type;location;lat;lon;timestamp;pressure;altitude;pressure_sealevel;temperature;humidity
54872;BME280;43914;57.680;11.982;2023-03-15T00:00:17;98759.77;;;0.98;73.56
54872;BME280;43914;57.680;11.982;2023-03-15T00:02:43;98763.70;;;0.97;73.47
54872;BME280;43914;57.680;11.982;2023-03-15T00:05:10;98771.20;;;1.02;73.63
54872;BME280;43914;57.680;11.982;2023-03-15T00:07:37;98776.06;;;1.07;73.50
54872;BME280;43914;57.680;11.982;2023-03-15T00:10:03;98777.02;;;1.11;72.81
54872;BME280;43914;57.680;11.982;2023-03-15T00:12:29;98777.91;;;1.16;73.13
54872;BME280;43914;57.680;11.982;2023-03-15T00:14:54;98783.52;;;1.20;73.01
54872;BME280;43914;57.680;11.982;2023-03-15T00:17:20;98772.40;;;1.15;73.39
54872;BME280;43914;57.680;11.982;2023-03-15T00:19:48;98789.35;;;1.22;73.13
54872;BME280;43914;57.680;11.982;2023-03-15T00:22:14;98791.77;;;1.25;73.01
54872;BME280;43914;57.680;11.982;2023-03-15T00:24:39;98790.13;;;1.22;72.40
54872;BME280;43914;57.680;11.982;2023-03-15T00:27:04;98792.91;;;1.19;72.31
54872;BME280;43914;57.680;11.982;2023-03-15T00:29:31;98795.90;;;1.18;72.15
54872;BME280;43914;57.680;11.982;2023-03-15T00:31:57;98801.30;;;1.15;72.05
54872;BME280;43914;57.680;11.982;2023-03-15T00:34:23;98804.69;;;1.11;71.51
54872;BME280;43914;57.680;11.982;2023-03-15T00:36:51;98804.93;;;1.09;71.73
54872;BME280;43914;57.680;11.982;2023-03-15T00:39:20;98805.15;;;1.07;71.98
54872;BME280;43914;57.680;11.982;2023-03-15T00:41:46;98807.95;;;1.04;71.83
54872;BME280;43914;57.680;11.982;2023-03-15T00:44:12;98813.86;;;1.03;71.41
54872;BME280;43914;57.680;11.982;2023-03-15T00:46:37;98814.34;;;1.01;71.47
54872;BME280;43914;57.680;11.982;2023-03-15T00:49:03;98821.09;;;1.00;71.46
54872;BME280;43914;57.680;11.982;2023-03-15T00:51:29;98823.45;;;0.98;70.98
54872;BME280;43914;57.680;11.982;2023-03-15T00:53:54;98826.00;;;0.96;70.87
54872;BME280;43914;57.680;11.982;2023-03-15T00:56:25;98830.63;;;0.94;70.67
54872;BME280;43914;57.680;11.982;2023-03-15T00:58:51;98835.09;;;0.93;70.39
54872;BME280;43914;57.680;11.982;2023-03-15T01:01:23;98836.84;;;0.93;70.27
54872;BME280;43914;57.680;11.982;2023-03-15T01:03:49;98837.70;;;0.93;69.86
54872;BME280;43914;57.680;11.982;2023-03-15T01:06:17;98842.02;;;0.93;69.62
54872;BME280;43914;57.680;11.982;2023-03-15T01:08:43;98841.95;;;0.92;69.87
54872;BME280;43914;57.680;11.982;2023-03-15T01:11:13;98845.28;;;0.94;69.78
54872;BME280;43914;57.680;11.982;2023-03-15T01:13:39;98851.66;;;0.95;69.87
54872;BME280;43914;57.680;11.982;2023-03-15T01:16:05;98853.98;;;0.96;70.04
54872;BME280;43914;57.680;11.982;2023-03-15T01:18:31;98854.23;;;0.97;70.06
54872;BME280;43914;57.680;11.982;2023-03-15T01:20:57;98858.49;;;0.98;70.18
54872;BME280;43914;57.680;11.982;2023-03-15T01:23:23;98852.69;;;0.92;69.73
54872;BME280;43914;57.680;11.982;2023-03-15T01:25:48;98856.92;;;0.93;69.79
54872;BME280;43914;57.680;11.982;2023-03-15T01:28:14;98863.11;;;0.93;69.97
54872;BME280;43914;57.680;11.982;2023-03-15T01:30:39;98857.28;;;0.93;70.51
54872;BME280;43914;57.680;11.982;2023-03-15T01:33:05;98865.52;;;0.95;71.21
54872;BME280;43914;57.680;11.982;2023-03-15T01:35:30;98870.88;;;0.98;71.71
54872;BME280;43914;57.680;11.982;2023-03-15T01:37:56;98872.34;;;1.01;72.17
54872;BME280;43914;57.680;11.982;2023-03-15T01:40:21;98872.54;;;1.02;72.18
54872;BME280;43914;57.680;11.982;2023-03-15T01:48:16;98881.79;;;1.05;72.12
54872;BME280;43914;57.680;11.982;2023-03-15T01:50:42;98883.61;;;1.08;72.56
54872;BME280;43914;57.680;11.982;2023-03-15T01:53:08;98886.45;;;1.10;72.39
54872;BME280;43914;57.680;11.982;2023-03-15T01:55:34;98890.15;;;1.12;72.10
54872;BME280;43914;57.680;11.982;2023-03-15T01:58:00;98884.23;;;1.11;72.03
54872;BME280;43914;57.680;11.982;2023-03-15T02:00:26;98890.78;;;1.10;71.85
54872;BME280;43914;57.680;11.982;2023-03-15T02:02:55;98895.54;;;1.08;71.85
54872;BME280;43914;57.680;11.982;2023-03-15T02:05:31;98895.90;;;1.05;71.36
54872;BME280;43914;57.680;11.982;2023-03-15T02:07:58;98896.13;;;1.01;71.58
54872;BME280;43914;57.680;11.982;2023-03-15T02:10:45;98903.56;;;0.97;71.24
54872;BME280;43914;57.680;11.982;2023-03-15T02:13:16;98904.90;;;0.95;71.68
54872;BME280;43914;57.680;11.982;2023-03-15T02:15:42;98906.44;;;0.95;71.60
54872;BME280;43914;57.680;11.982;2023-03-15T02:18:12;98912.06;;;0.94;71.57
54872;BME280;43914;57.680;11.982;2023-03-15T02:23:21;98920.39;;;0.93;71.81
54872;BME280;43914;57.680;11.982;2023-03-15T02:28:38;98924.23;;;0.92;72.16
54872;BME280;43914;57.680;11.982;2023-03-15T02:31:04;98924.23;;;0.92;71.62
54872;BME280;43914;57.680;11.982;2023-03-15T02:33:43;98924.55;;;0.92;71.40
54872;BME280;43914;57.680;11.982;2023-03-15T02:36:26;98924.19;;;0.92;71.37
54872;BME280;43914;57.680;11.982;2023-03-15T02:38:52;98927.96;;;0.92;71.32
54872;BME280;43914;57.680;11.982;2023-03-15T02:41:39;98932.77;;;0.93;71.30
54872;BME280;43914;57.680;11.982;2023-03-15T02:46:50;98940.77;;;0.93;71.23
54872;BME280;43914;57.680;11.982;2023-03-15T02:49:17;98940.73;;;0.93;71.54
54872;BME280;43914;57.680;11.982;2023-03-15T02:51:45;98940.98;;;0.94;71.75
54872;BME280;43914;57.680;11.982;2023-03-15T02:54:11;98947.80;;;0.94;72.03
54872;BME280;43914;57.680;11.982;2023-03-15T02:56:36;98950.85;;;0.96;72.46
54872;BME280;43914;57.680;11.982;2023-03-15T02:59:02;98949.99;;;0.95;72.85
54872;BME280;43914;57.680;11.982;2023-03-15T03:01:27;98953.24;;;0.96;73.32
54872;BME280;43914;57.680;11.982;2023-03-15T03:03:53;98957.98;;;0.98;73.52
54872;BME280;43914;57.680;11.982;2023-03-15T03:06:18;98958.61;;;0.97;73.85
54872;BME280;43914;57.680;11.982;2023-03-15T03:08:44;98962.42;;;0.96;73.86
54872;BME280;43914;57.680;11.982;2023-03-15T03:11:14;98961.85;;;0.95;74.08
54872;BME280;43914;57.680;11.982;2023-03-15T03:13:41;98966.48;;;0.93;74.18
54872;BME280;43914;57.680;11.982;2023-03-15T03:16:07;98962.02;;;0.88;74.25
54872;BME280;43914;57.680;11.982;2023-03-15T03:18:32;98966.20;;;0.89;74.08
54872;BME280;43914;57.680;11.982;2023-03-15T03:21:03;98971.95;;;0.86;74.39
54872;BME280;43914;57.680;11.982;2023-03-15T03:23:31;98969.39;;;0.85;74.42
54872;BME280;43914;57.680;11.982;2023-03-15T03:25:58;98974.23;;;0.83;74.30
54872;BME280;43914;57.680;11.982;2023-03-15T03:28:26;98980.02;;;0.82;74.27
54872;BME280;43914;57.680;11.982;2023-03-15T03:30:52;98985.10;;;0.80;74.50
54872;BME280;43914;57.680;11.982;2023-03-15T03:33:20;98986.07;;;0.79;74.71
54872;BME280;43914;57.680;11.982;2023-03-15T03:35:46;98987.24;;;0.78;75.17
54872;BME280;43914;57.680;11.982;2023-03-15T03:38:12;98993.56;;;0.77;75.40
54872;BME280;43914;57.680;11.982;2023-03-15T03:40:38;99000.98;;;0.75;75.51
54872;BME280;43914;57.680;11.982;2023-03-15T03:43:04;99007.59;;;0.72;75.37
54872;BME280;43914;57.680;11.982;2023-03-15T03:45:32;99010.91;;;0.69;75.44
54872;BME280;43914;57.680;11.982;2023-03-15T03:47:58;99014.94;;;0.70;75.42
54872;BME280;43914;57.680;11.982;2023-03-15T03:50:23;99019.50;;;0.68;75.04
54872;BME280;43914;57.680;11.982;2023-03-15T03:52:49;99023.46;;;0.68;75.25
54872;BME280;43914;57.680;11.982;2023-03-15T03:55:15;99024.04;;;0.67;75.30
54872;BME280;43914;57.680;11.982;2023-03-15T03:57:41;99025.95;;;0.66;75.42
54872;BME280;43914;57.680;11.982;2023-03-15T04:00:12;99027.66;;;0.66;75.77
54872;BME280;43914;57.680;11.982;2023-03-15T04:02:40;99031.98;;;0.67;76.06
54872;BME280;43914;57.680;11.982;2023-03-15T04:05:09;99033.54;;;0.67;76.19
54872;BME280;43914;57.680;11.982;2023-03-15T04:07:36;99034.50;;;0.66;76.39
54872;BME280;43914;57.680;11.982;2023-03-15T04:10:01;99034.41;;;0.66;76.41
54872;BME280;43914;57.680;11.982;2023-03-15T04:12:27;99037.14;;;0.65;76.24
54872;BME280;43914;57.680;11.982;2023-03-15T04:14:53;99043.09;;;0.64;76.12
54872;BME280;43914;57.680;11.982;2023-03-15T04:17:18;99044.90;;;0.62;76.06
54872;BME280;43914;57.680;11.982;2023-03-15T04:19:44;99054.05;;;0.60;76.27
54872;BME280;43914;57.680;11.982;2023-03-15T04:22:12;99055.49;;;0.60;76.24
54872;BME280;43914;57.680;11.982;2023-03-15T04:24:42;99061.94;;;0.59;76.24
54872;BME280;43914;57.680;11.982;2023-03-15T04:27:08;99063.70;;;0.59;76.23
54872;BME280;43914;57.680;11.982;2023-03-15T04:29:42;99064.13;;;0.58;76.01
54872;BME280;43914;57.680;11.982;2023-03-15T04:32:09;99066.47;;;0.57;76.04
54872;BME280;43914;57.680;11.982;2023-03-15T04:34:34;99070.86;;;0.55;75.91
54872;BME280;43914;57.680;11.982;2023-03-15T04:37:03;99073.84;;;0.54;76.13
54872;BME280;43914;57.680;11.982;2023-03-15T04:39:30;99070.20;;;0.54;76.34
54872;BME280;43914;57.680;11.982;2023-03-15T04:41:55;99078.00;;;0.55;76.45
54872;BME280;43914;57.680;11.982;2023-03-15T04:44:21;99075.42;;;0.54;76.54
54872;BME280;43914;57.680;11.982;2023-03-15T04:46:50;99074.29;;;0.53;76.47
54872;BME280;43914;57.680;11.982;2023-03-15T04:49:16;99081.84;;;0.52;76.58
54872;BME280;43914;57.680;11.982;2023-03-15T04:51:41;99084.83;;;0.52;76.69
54872;BME280;43914;57.680;11.982;2023-03-15T04:54:07;99088.40;;;0.52;76.70
54872;BME280;43914;57.680;11.982;2023-03-15T04:56:32;99091.67;;;0.52;76.99
54872;BME280;43914;57.680;11.982;2023-03-15T04:58:57;99094.28;;;0.52;76.94
54872;BME280;43914;57.680;11.982;2023-03-15T05:01:29;99096.42;;;0.52;76.92
54872;BME280;43914;57.680;11.982;2023-03-15T05:03:56;99104.30;;;0.54;77.01
54872;BME280;43914;57.680;11.982;2023-03-15T05:06:21;99105.55;;;0.56;76.79
54872;BME280;43914;57.680;11.982;2023-03-15T05:08:47;99103.65;;;0.61;76.75
54872;BME280;43914;57.680;11.982;2023-03-15T05:11:13;99098.50;;;0.61;76.72
54872;BME280;43914;57.680;11.982;2023-03-15T05:13:38;99108.69;;;0.65;76.67
54872;BME280;43914;57.680;11.982;2023-03-15T05:16:04;99112.23;;;0.68;76.41
54872;BME280;43914;57.680;11.982;2023-03-15T05:18:29;99111.55;;;0.71;76.64
54872;BME280;43914;57.680;11.982;2023-03-15T05:20:55;99117.24;;;0.76;76.91
54872;BME280;43914;57.680;11.982;2023-03-15T05:23:21;99119.27;;;0.77;76.65
54872;BME280;43914;57.680;11.982;2023-03-15T05:26:14;99123.16;;;0.77;76.88
54872;BME280;43914;57.680;11.982;2023-03-15T05:28:39;99126.41;;;0.78;76.86
54872;BME280;43914;57.680;11.982;2023-03-15T05:31:05;99127.85;;;0.79;76.99
54872;BME280;43914;57.680;11.982;2023-03-15T05:33:31;99131.63;;;0.82;76.99
54872;BME280;43914;57.680;11.982;2023-03-15T05:35:57;99130.77;;;0.83;77.08
54872;BME280;43914;57.680;11.982;2023-03-15T05:38:23;99136.72;;;0.85;77.28
54872;BME280;43914;57.680;11.982;2023-03-15T05:40:51;99140.82;;;0.86;77.44
54872;BME280;43914;57.680;11.982;2023-03-15T05:43:17;99147.52;;;0.89;77.99
54872;BME280;43914;57.680;11.982;2023-03-15T05:45:43;99146.95;;;0.92;78.51
54872;BME280;43914;57.680;11.982;2023-03-15T05:48:09;99150.05;;;0.95;78.88
54872;BME280;43914;57.680;11.982;2023-03-15T05:50:35;99152.92;;;0.99;79.32
54872;BME280;43914;57.680;11.982;2023-03-15T05:53:00;99156.39;;;1.01;79.65
54872;BME280;43914;57.680;11.982;2023-03-15T05:55:26;99159.15;;;1.04;79.97
54872;BME280;43914;57.680;11.982;2023-03-15T05:57:51;99164.48;;;1.07;79.71
54872;BME280;43914;57.680;11.982;2023-03-15T06:00:17;99164.27;;;1.07;79.25
54872;BME280;43914;57.680;11.982;2023-03-15T06:02:44;99166.59;;;1.07;78.79
54872;BME280;43914;57.680;11.982;2023-03-15T06:05:09;99177.67;;;1.07;78.45
54872;BME280;43914;57.680;11.982;2023-03-15T06:07:35;99186.21;;;1.08;78.64
54872;BME280;43914;57.680;11.982;2023-03-15T06:10:01;99188.48;;;1.12;78.58
54872;BME280;43914;57.680;11.982;2023-03-15T06:12:27;99198.02;;;1.15;78.76
54872;BME280;43914;57.680;11.982;2023-03-15T06:14:52;99198.37;;;1.19;78.76
54872;BME280;43914;57.680;11.982;2023-03-15T06:17:18;99201.23;;;1.22;78.81
54872;BME280;43914;57.680;11.982;2023-03-15T06:19:44;99206.85;;;1.23;78.27
54872;BME280;43914;57.680;11.982;2023-03-15T06:22:09;99213.15;;;1.26;77.88
54872;BME280;43914;57.680;11.982;2023-03-15T06:24:35;99213.09;;;1.30;77.87
54872;BME280;43914;57.680;11.982;2023-03-15T06:27:00;99217.36;;;1.31;77.18
54872;BME280;43914;57.680;11.982;2023-03-15T06:29:26;99217.36;;;1.29;76.65
54872;BME280;43914;57.680;11.982;2023-03-15T06:31:51;99211.61;;;1.27;76.51
54872;BME280;43914;57.680;11.982;2023-03-15T06:34:18;99221.48;;;1.24;76.58
54872;BME280;43914;57.680;11.982;2023-03-15T06:36:43;99227.34;;;1.23;76.74
54872;BME280;43914;57.680;11.982;2023-03-15T06:39:13;99230.95;;;1.24;76.97
54872;BME280;43914;57.680;11.982;2023-03-15T06:41:39;99235.39;;;1.26;77.38
54872;BME280;43914;57.680;11.982;2023-03-15T06:44:08;99244.73;;;1.29;77.42
54872;BME280;43914;57.680;11.982;2023-03-15T06:46:34;99248.30;;;1.29;77.21
54872;BME280;43914;57.680;11.982;2023-03-15T06:49:00;99252.50;;;1.29;77.08
54872;BME280;43914;57.680;11.982;2023-03-15T06:51:28;99258.36;;;1.32;77.29
54872;BME280;43914;57.680;11.982;2023-03-15T06:53:54;99260.98;;;1.36;77.47
54872;BME280;43914;57.680;11.982;2023-03-15T06:56:23;99277.28;;;1.40;77.34
54872;BME280;43914;57.680;11.982;2023-03-15T06:58:48;99274.19;;;1.43;76.96
54872;BME280;43914;57.680;11.982;2023-03-15T07:01:14;99277.84;;;1.41;76.90
54872;BME280;43914;57.680;11.982;2023-03-15T07:03:40;99284.21;;;1.40;76.68
54872;BME280;43914;57.680;11.982;2023-03-15T07:06:06;99281.27;;;1.40;76.61
54872;BME280;43914;57.680;11.982;2023-03-15T07:08:32;99285.44;;;1.43;77.11
54872;BME280;43914;57.680;11.982;2023-03-15T07:10:57;99281.05;;;1.48;77.51
54872;BME280;43914;57.680;11.982;2023-03-15T07:13:23;99283.56;;;1.53;77.37
54872;BME280;43914;57.680;11.982;2023-03-15T07:15:53;99286.79;;;1.57;77.18
54872;BME280;43914;57.680;11.982;2023-03-15T07:18:19;99295.27;;;1.62;76.98
54872;BME280;43914;57.680;11.982;2023-03-15T07:20:44;99297.77;;;1.69;77.42
54872;BME280;43914;57.680;11.982;2023-03-15T07:23:10;99303.74;;;1.74;77.46
54872;BME280;43914;57.680;11.982;2023-03-15T07:25:35;99309.19;;;1.82;77.50
54872;BME280;43914;57.680;11.982;2023-03-15T07:28:00;99311.84;;;1.86;77.60
54872;BME280;43914;57.680;11.982;2023-03-15T07:30:26;99314.41;;;1.91;77.66
54872;BME280;43914;57.680;11.982;2023-03-15T07:32:52;99325.13;;;1.96;77.65
54872;BME280;43914;57.680;11.982;2023-03-15T07:35:17;99326.20;;;1.99;77.53
54872;BME280;43914;57.680;11.982;2023-03-15T07:37:43;99335.03;;;2.08;77.00
54872;BME280;43914;57.680;11.982;2023-03-15T07:40:09;99339.05;;;2.17;77.24
54872;BME280;43914;57.680;11.982;2023-03-15T07:42:36;99345.77;;;2.23;77.08
54872;BME280;43914;57.680;11.982;2023-03-15T07:45:05;99351.13;;;2.29;76.96
54872;BME280;43914;57.680;11.982;2023-03-15T07:47:31;99356.40;;;2.33;77.64
54872;BME280;43914;57.680;11.982;2023-03-15T07:49:57;99355.48;;;2.35;78.60
54872;BME280;43914;57.680;11.982;2023-03-15T07:52:23;99358.78;;;2.37;79.48
54872;BME280;43914;57.680;11.982;2023-03-15T07:54:49;99356.81;;;2.41;80.21
54872;BME280;43914;57.680;11.982;2023-03-15T07:57:14;99366.69;;;2.46;80.57
54872;BME280;43914;57.680;11.982;2023-03-15T07:59:40;99360.59;;;2.47;80.74
54872;BME280;43914;57.680;11.982;2023-03-15T08:02:06;99368.45;;;2.53;80.97
54872;BME280;43914;57.680;11.982;2023-03-15T08:04:31;99389.90;;;2.54;80.61
54872;BME280;43914;57.680;11.982;2023-03-15T08:06:57;99390.73;;;2.52;80.35
54872;BME280;43914;57.680;11.982;2023-03-15T08:09:23;99375.25;;;2.55;80.50
54872;BME280;43914;57.680;11.982;2023-03-15T08:11:49;99378.42;;;2.60;80.52
54872;BME280;43914;57.680;11.982;2023-03-15T08:14:14;99376.63;;;2.64;80.75
54872;BME280;43914;57.680;11.982;2023-03-15T08:16:40;99387.48;;;2.68;81.12
54872;BME280;43914;57.680;11.982;2023-03-15T08:19:05;99395.56;;;2.72;80.92
54872;BME280;43914;57.680;11.982;2023-03-15T08:21:31;99401.40;;;2.72;80.25
54872;BME280;43914;57.680;11.982;2023-03-15T08:24:00;99405.09;;;2.69;80.00
54872;BME280;43914;57.680;11.982;2023-03-15T08:26:25;99406.59;;;2.70;80.08
54872;BME280;43914;57.680;11.982;2023-03-15T08:28:50;99407.11;;;2.75;80.02
54872;BME280;43914;57.680;11.982;2023-03-15T08:31:16;99406.73;;;2.86;79.94
54872;BME280;43914;57.680;11.982;2023-03-15T08:33:42;99412.51;;;2.95;78.62
54872;BME280;43914;57.680;11.982;2023-03-15T08:36:08;99419.73;;;2.97;77.28
54872;BME280;43914;57.680;11.982;2023-03-15T08:38:34;99413.57;;;2.99;77.03
54872;BME280;43914;57.680;11.982;2023-03-15T08:41:00;99422.91;;;3.00;76.58
54872;BME280;43914;57.680;11.982;2023-03-15T08:43:25;99422.25;;;2.98;75.20
54872;BME280;43914;57.680;11.982;2023-03-15T08:45:51;99423.30;;;3.07;75.09
54872;BME280;43914;57.680;11.982;2023-03-15T08:48:17;99425.75;;;3.15;74.68
54872;BME280;43914;57.680;11.982;2023-03-15T08:50:42;99430.75;;;3.25;74.91
54872;BME280;43914;57.680;11.982;2023-03-15T08:53:08;99430.30;;;3.38;75.20
54872;BME280;43914;57.680;11.982;2023-03-15T08:55:34;99442.40;;;3.56;75.21
54872;BME280;43914;57.680;11.982;2023-03-15T08:58:01;99463.40;;;3.59;73.34
54872;BME280;43914;57.680;11.982;2023-03-15T09:00:27;99466.76;;;3.53;71.97
54872;BME280;43914;57.680;11.982;2023-03-15T09:02:52;99458.80;;;3.58;72.46
54872;BME280;43914;57.680;11.982;2023-03-15T09:05:20;99467.95;;;3.68;72.54
54872;BME280;43914;57.680;11.982;2023-03-15T09:07:47;99472.36;;;3.73;72.37
54872;BME280;43914;57.680;11.982;2023-03-15T09:10:14;99485.55;;;3.81;71.53
54872;BME280;43914;57.680;11.982;2023-03-15T09:12:48;99489.58;;;3.78;70.30
54872;BME280;43914;57.680;11.982;2023-03-15T09:15:14;99489.36;;;3.77;71.03
54872;BME280;43914;57.680;11.982;2023-03-15T09:17:41;99497.58;;;3.74;71.08
54872;BME280;43914;57.680;11.982;2023-03-15T09:20:09;99504.30;;;3.71;71.20
54872;BME280;43914;57.680;11.982;2023-03-15T09:22:42;99496.13;;;3.71;71.89
54872;BME280;43914;57.680;11.982;2023-03-15T09:25:09;99504.43;;;3.71;72.43
54872;BME280;43914;57.680;11.982;2023-03-15T09:27:35;99512.38;;;3.70;71.73
54872;BME280;43914;57.680;11.982;2023-03-15T09:30:01;99517.54;;;3.68;71.59
54872;BME280;43914;57.680;11.982;2023-03-15T09:32:27;99511.77;;;3.64;71.50
54872;BME280;43914;57.680;11.982;2023-03-15T09:34:52;99523.19;;;3.70;71.38
54872;BME280;43914;57.680;11.982;2023-03-15T09:37:18;99523.35;;;3.68;71.55
54872;BME280;43914;57.680;11.982;2023-03-15T09:39:46;99533.24;;;3.61;71.62
54872;BME280;43914;57.680;11.982;2023-03-15T09:42:20;99535.70;;;3.51;71.64
54872;BME280;43914;57.680;11.982;2023-03-15T09:45:07;99527.08;;;3.39;71.35
54872;BME280;43914;57.680;11.982;2023-03-15T09:47:58;99539.23;;;3.38;70.93
54872;BME280;43914;57.680;11.982;2023-03-15T09:50:29;99543.02;;;3.42;72.15
54872;BME280;43914;57.680;11.982;2023-03-15T09:52:59;99546.89;;;3.47;72.37
54872;BME280;43914;57.680;11.982;2023-03-15T09:55:28;99547.05;;;3.53;72.00
54872;BME280;43914;57.680;11.982;2023-03-15T09:57:57;99545.86;;;3.57;71.38
54872;BME280;43914;57.680;11.982;2023-03-15T10:00:51;99550.23;;;3.61;70.42
54872;BME280;43914;57.680;11.982;2023-03-15T10:06:20;99561.92;;;3.64;70.92
54872;BME280;43914;57.680;11.982;2023-03-15T10:08:55;99566.42;;;3.75;71.32
54872;BME280;43914;57.680;11.982;2023-03-15T10:11:28;99569.92;;;3.85;71.21
54872;BME280;43914;57.680;11.982;2023-03-15T10:16:43;99567.58;;;3.79;70.12
54872;BME280;43914;57.680;11.982;2023-03-15T10:25:14;99584.71;;;3.99;70.88
54872;BME280;43914;57.680;11.982;2023-03-15T10:30:21;99599.36;;;4.09;69.30
54872;BME280;43914;57.680;11.982;2023-03-15T10:33:14;99596.31;;;4.10;69.68
54872;BME280;43914;57.680;11.982;2023-03-15T10:35:43;99608.89;;;4.19;69.86
54872;BME280;43914;57.680;11.982;2023-03-15T10:38:16;99603.84;;;4.28;69.83
54872;BME280;43914;57.680;11.982;2023-03-15T10:43:21;99604.05;;;4.32;69.69
54872;BME280;43914;57.680;11.982;2023-03-15T10:46:24;99621.59;;;4.36;69.94
54872;BME280;43914;57.680;11.982;2023-03-15T10:48:57;99622.65;;;4.41;69.38
54872;BME280;43914;57.680;11.982;2023-03-15T10:51:31;99628.10;;;4.43;67.67
54872;BME280;43914;57.680;11.982;2023-03-15T10:54:01;99650.88;;;4.50;68.08
54872;BME280;43914;57.680;11.982;2023-03-15T10:57:03;99638.39;;;4.56;68.53
54872;BME280;43914;57.680;11.982;2023-03-15T10:59:29;99640.30;;;4.61;68.04
54872;BME280;43914;57.680;11.982;2023-03-15T11:04:42;99644.08;;;4.57;67.11
54872;BME280;43914;57.680;11.982;2023-03-15T11:07:08;99639.63;;;4.62;67.25
54872;BME280;43914;57.680;11.982;2023-03-15T11:09:58;99640.48;;;4.67;65.82
54872;BME280;43914;57.680;11.982;2023-03-15T11:12:27;99644.69;;;4.69;65.00
54872;BME280;43914;57.680;11.982;2023-03-15T11:17:31;99669.33;;;4.57;63.70
54872;BME280;43914;57.680;11.982;2023-03-15T11:19:59;99667.86;;;4.51;63.32
54872;BME280;43914;57.680;11.982;2023-03-15T11:22:36;99662.75;;;4.47;64.57
54872;BME280;43914;57.680;11.982;2023-03-15T11:25:01;99680.29;;;4.58;64.26
54872;BME280;43914;57.680;11.982;2023-03-15T11:27:27;99681.10;;;4.66;63.96
54872;BME280;43914;57.680;11.982;2023-03-15T11:29:56;99690.30;;;4.71;63.99
54872;BME280;43914;57.680;11.982;2023-03-15T11:32:28;99690.73;;;4.75;64.01
54872;BME280;43914;57.680;11.982;2023-03-15T11:35:14;99699.73;;;4.72;62.39
54872;BME280;43914;57.680;11.982;2023-03-15T11:37:52;99691.44;;;4.69;62.69
54872;BME280;43914;57.680;11.982;2023-03-15T11:40:29;99689.00;;;4.76;63.17
54872;BME280;43914;57.680;11.982;2023-03-15T11:43:05;99690.82;;;4.84;63.07
54872;BME280;43914;57.680;11.982;2023-03-15T11:48:18;99700.91;;;5.00;62.57
54872;BME280;43914;57.680;11.982;2023-03-15T11:50:46;99708.41;;;5.03;62.60
54872;BME280;43914;57.680;11.982;2023-03-15T11:53:15;99702.41;;;5.10;62.15
54872;BME280;43914;57.680;11.982;2023-03-15T11:55:51;99705.13;;;5.10;61.33
54872;BME280;43914;57.680;11.982;2023-03-15T11:58:30;99712.11;;;5.14;61.93
54872;BME280;43914;57.680;11.982;2023-03-15T12:01:03;99721.59;;;5.23;60.89
54872;BME280;43914;57.680;11.982;2023-03-15T12:05:59;99726.05;;;5.18;61.31
54872;BME280;43914;57.680;11.982;2023-03-15T12:11:01;99737.25;;;5.19;60.41
54872;BME280;43914;57.680;11.982;2023-03-15T12:13:30;99737.77;;;5.08;59.82
54872;BME280;43914;57.680;11.982;2023-03-15T12:15:57;99730.30;;;5.05;60.53
54872;BME280;43914;57.680;11.982;2023-03-15T12:18:41;99733.67;;;5.16;61.10
54872;BME280;43914;57.680;11.982;2023-03-15T12:21:18;99735.95;;;5.50;61.27
54872;BME280;43914;57.680;11.982;2023-03-15T12:23:55;99731.40;;;5.65;60.38
54872;BME280;43914;57.680;11.982;2023-03-15T12:26:25;99740.45;;;5.65;59.26
54872;BME280;43914;57.680;11.982;2023-03-15T12:28:52;99738.59;;;5.66;59.34
54872;BME280;43914;57.680;11.982;2023-03-15T12:31:26;99747.13;;;5.66;59.03
54872;BME280;43914;57.680;11.982;2023-03-15T12:34:14;99747.84;;;5.69;59.55
54872;BME280;43914;57.680;11.982;2023-03-15T12:36:48;99744.36;;;5.74;58.96
54872;BME280;43914;57.680;11.982;2023-03-15T12:41:44;99753.77;;;5.51;57.95
54872;BME280;43914;57.680;11.982;2023-03-15T12:44:41;99749.27;;;5.43;58.52
54872;BME280;43914;57.680;11.982;2023-03-15T12:47:09;99757.66;;;5.40;58.95
54872;BME280;43914;57.680;11.982;2023-03-15T12:49:44;99756.77;;;5.45;59.53
54872;BME280;43914;57.680;11.982;2023-03-15T12:54:57;99761.80;;;5.59;60.09
54872;BME280;43914;57.680;11.982;2023-03-15T12:57:27;99769.05;;;5.81;60.02
54872;BME280;43914;57.680;11.982;2023-03-15T13:02:24;99777.30;;;6.12;59.09
54872;BME280;43914;57.680;11.982;2023-03-15T13:04:59;99772.03;;;6.16;58.98
54872;BME280;43914;57.680;11.982;2023-03-15T13:19:05;99794.71;;;7.07;58.27
54872;BME280;43914;57.680;11.982;2023-03-15T13:24:20;99807.09;;;7.43;57.21
54872;BME280;43914;57.680;11.982;2023-03-15T13:26:58;99810.23;;;7.61;56.40
54872;BME280;43914;57.680;11.982;2023-03-15T13:29:29;99817.92;;;7.83;55.86
54872;BME280;43914;57.680;11.982;2023-03-15T13:32:07;99817.18;;;7.75;55.29
54872;BME280;43914;57.680;11.982;2023-03-15T13:34:36;99826.79;;;7.55;54.83
54872;BME280;43914;57.680;11.982;2023-03-15T13:37:01;99824.42;;;7.41;55.32
54872;BME280;43914;57.680;11.982;2023-03-15T13:39:29;99828.84;;;7.20;55.41
54872;BME280;43914;57.680;11.982;2023-03-15T13:42:05;99828.95;;;7.01;55.90
54872;BME280;43914;57.680;11.982;2023-03-15T13:44:32;99826.51;;;6.75;56.40
54872;BME280;43914;57.680;11.982;2023-03-15T13:47:00;99839.96;;;6.53;56.96
54872;BME280;43914;57.680;11.982;2023-03-15T13:49:32;99840.31;;;6.54;57.42
54872;BME280;43914;57.680;11.982;2023-03-15T13:52:02;99841.50;;;6.72;57.47
54872;BME280;43914;57.680;11.982;2023-03-15T13:54:34;99849.59;;;6.96;57.26
54872;BME280;43914;57.680;11.982;2023-03-15T13:57:04;99853.73;;;7.25;56.76
54872;BME280;43914;57.680;11.982;2023-03-15T14:02:03;99847.83;;;7.74;56.14
54872;BME280;43914;57.680;11.982;2023-03-15T14:04:34;99852.85;;;8.05;54.89
54872;BME280;43914;57.680;11.982;2023-03-15T14:07:47;99853.73;;;8.31;54.90
54872;BME280;43914;57.680;11.982;2023-03-15T14:12:44;99857.16;;;9.07;53.63
54872;BME280;43914;57.680;11.982;2023-03-15T14:15:41;99858.23;;;9.22;53.01
54872;BME280;43914;57.680;11.982;2023-03-15T14:18:13;99862.52;;;9.34;52.35